sensor_id;sensor_type;location;lat;lon;timestamp;P1;durP1;ratioP1;P2;durP2;ratioP2
79592;SDS011;69074;45.164;9.704;2023-06-10T00:01:19;16.1;;;13.2;;
79592;SDS011;69074;45.164;9.704;2023-06-10T00:03:44;16.1;;;13.2;;
79592;SDS011;69074;45.164;9.704;2023-06-10T00:06:09;13.6;;;12.2;;
79592;SDS011;69074;45.164;9.704;2023-06-10T00:08:34;13.6;;;12.2;;
79592;SDS011;69074;45.164;9.704;2023-06-10T00:10:59;13.6;;;12.2;;
79592;SDS011;69074;45.164;9.704;2023-06-10T00:13:24;13.6;;;12.2;;
79592;SDS011;69074;45.164;9.704;2023-06-10T00:15:49;13.6;;;12.2;;
79592;SDS011;69074;45.164;9.704;2023-06-10T00:18:14;13.6;;;12.2;;
79592;SDS011;69074;45.164;9.704;2023-06-10T00:20:39;13.6;;;12.2;;
79592;SDS011;69074;45.164;9.704;2023-06-10T00:23:04;10.9;;;9.6;;
79592;SDS011;69074;45.164;9.704;2023-06-10T00:25:29;10.9;;;9.6;;
79592;SDS011;69074;45.164;9.704;2023-06-10T00:27:54;10.9;;;9.6;;
79592;SDS011;69074;45.164;9.704;2023-06-10T00:30:19;10.9;;;9.6;;
79592;SDS011;69074;45.164;9.704;2023-06-10T00:32:44;10.9;;;9.6;;
79592;SDS011;69074;45.164;9.704;2023-06-10T00:35:09;10.9;;;9.6;;
79592;SDS011;69074;45.164;9.704;2023-06-10T00:37:34;34.6;;;28.8;;
79592;SDS011;69074;45.164;9.704;2023-06-10T00:39:59;34.6;;;28.8;;
79592;SDS011;69074;45.164;9.704;2023-06-10T00:42:24;34.6;;;28.8;;
79592;SDS011;69074;45.164;9.704;2023-06-10T00:44:49;34.6;;;28.8;;
79592;SDS011;69074;45.164;9.704;2023-06-10T00:47:14;34.6;;;28.8;;
79592;SDS011;69074;45.164;9.704;2023-06-10T00:49:39;34.6;;;28.8;;
79592;SDS011;69074;45.164;9.704;2023-06-10T00:52:04;17.1;;;10.7;;
79592;SDS011;69074;45.164;9.704;2023-06-10T00:54:29;17.1;;;10.7;;
79592;SDS011;69074;45.164;9.704;2023-06-10T00:56:54;17.1;;;10.7;;
79592;SDS011;69074;45.164;9.704;2023-06-10T00:59:19;17.1;;;10.7;;
79592;SDS011;69074;45.164;9.704;2023-06-10T01:01:45;17.1;;;10.7;;
79592;SDS011;69074;45.164;9.704;2023-06-10T01:04:09;17.1;;;10.7;;
79592;SDS011;69074;45.164;9.704;2023-06-10T01:06:36;7.4;;;5.7;;
79592;SDS011;69074;45.164;9.704;2023-06-10T01:09:01;7.4;;;5.7;;
79592;SDS011;69074;45.164;9.704;2023-06-10T01:11:27;7.4;;;5.7;;
79592;SDS011;69074;45.164;9.704;2023-06-10T01:13:49;7.4;;;5.7;;
79592;SDS011;69074;45.164;9.704;2023-06-10T01:16:14;7.4;;;5.7;;
79592;SDS011;69074;45.164;9.704;2023-06-10T01:18:39;7.4;;;5.7;;
79592;SDS011;69074;45.164;9.704;2023-06-10T01:21:04;7.4;;;5.3;;
79592;SDS011;69074;45.164;9.704;2023-06-10T01:23:29;7.4;;;5.3;;
79592;SDS011;69074;45.164;9.704;2023-06-10T01:25:57;7.4;;;5.3;;
79592;SDS011;69074;45.164;9.704;2023-06-10T01:28:19;7.4;;;5.3;;
79592;SDS011;69074;45.164;9.704;2023-06-10T01:30:47;7.4;;;5.3;;
79592;SDS011;69074;45.164;9.704;2023-06-10T01:33:09;7.4;;;5.3;;
79592;SDS011;69074;45.164;9.704;2023-06-10T01:35:34;7.4;;;5.3;;
79592;SDS011;69074;45.164;9.704;2023-06-10T01:37:59;8.1;;;5.0;;
79592;SDS011;69074;45.164;9.704;2023-06-10T01:40:24;8.1;;;5.0;;
79592;SDS011;69074;45.164;9.704;2023-06-10T01:42:49;8.1;;;5.0;;
79592;SDS011;69074;45.164;9.704;2023-06-10T01:45:14;8.1;;;5.0;;
79592;SDS011;69074;45.164;9.704;2023-06-10T01:47:39;8.1;;;5.0;;
79592;SDS011;69074;45.164;9.704;2023-06-10T01:50:04;8.1;;;5.0;;
79592;SDS011;69074;45.164;9.704;2023-06-10T01:52:29;9.0;;;4.3;;
79592;SDS011;69074;45.164;9.704;2023-06-10T01:54:54;9.0;;;4.3;;
79592;SDS011;69074;45.164;9.704;2023-06-10T01:57:19;9.0;;;4.3;;
79592;SDS011;69074;45.164;9.704;2023-06-10T01:59:44;9.0;;;4.3;;
79592;SDS011;69074;45.164;9.704;2023-06-10T02:02:09;9.0;;;4.3;;
79592;SDS011;69074;45.164;9.704;2023-06-10T02:04:34;9.0;;;4.3;;
79592;SDS011;69074;45.164;9.704;2023-06-10T02:06:59;8.0;;;4.1;;
79592;SDS011;69074;45.164;9.704;2023-06-10T02:09:24;8.0;;;4.1;;
79592;SDS011;69074;45.164;9.704;2023-06-10T02:11:49;8.0;;;4.1;;
79592;SDS011;69074;45.164;9.704;2023-06-10T02:14:14;8.0;;;4.1;;
79592;SDS011;69074;45.164;9.704;2023-06-10T02:16:39;8.0;;;4.1;;
79592;SDS011;69074;45.164;9.704;2023-06-10T02:19:04;8.0;;;4.1;;
79592;SDS011;69074;45.164;9.704;2023-06-10T02:21:29;4.8;;;3.6;;
79592;SDS011;69074;45.164;9.704;2023-06-10T02:23:54;4.8;;;3.6;;
79592;SDS011;69074;45.164;9.704;2023-06-10T02:26:19;4.8;;;3.6;;
79592;SDS011;69074;45.164;9.704;2023-06-10T02:28:44;4.8;;;3.6;;
79592;SDS011;69074;45.164;9.704;2023-06-10T02:31:09;4.8;;;3.6;;
79592;SDS011;69074;45.164;9.704;2023-06-10T02:33:34;4.8;;;3.6;;
79592;SDS011;69074;45.164;9.704;2023-06-10T02:35:59;7.3;;;4.1;;
79592;SDS011;69074;45.164;9.704;2023-06-10T02:38:24;7.3;;;4.1;;
79592;SDS011;69074;45.164;9.704;2023-06-10T02:40:49;7.3;;;4.1;;
79592;SDS011;69074;45.164;9.704;2023-06-10T02:43:14;7.3;;;4.1;;
79592;SDS011;69074;45.164;9.704;2023-06-10T02:45:39;7.3;;;4.1;;
79592;SDS011;69074;45.164;9.704;2023-06-10T02:48:04;7.3;;;4.1;;
79592;SDS011;69074;45.164;9.704;2023-06-10T02:50:29;7.3;;;4.1;;
79592;SDS011;69074;45.164;9.704;2023-06-10T02:52:54;6.3;;;4.7;;
79592;SDS011;69074;45.164;9.704;2023-06-10T02:55:19;6.3;;;4.7;;
79592;SDS011;69074;45.164;9.704;2023-06-10T02:57:44;6.3;;;4.7;;
79592;SDS011;69074;45.164;9.704;2023-06-10T03:00:09;6.3;;;4.7;;
79592;SDS011;69074;45.164;9.704;2023-06-10T03:02:34;6.3;;;4.7;;
79592;SDS011;69074;45.164;9.704;2023-06-10T03:04:59;6.3;;;4.7;;
79592;SDS011;69074;45.164;9.704;2023-06-10T03:07:24;8.1;;;4.9;;
79592;SDS011;69074;45.164;9.704;2023-06-10T03:09:49;8.1;;;4.9;;
79592;SDS011;69074;45.164;9.704;2023-06-10T03:12:14;8.1;;;4.9;;
79592;SDS011;69074;45.164;9.704;2023-06-10T03:14:39;8.1;;;4.9;;
79592;SDS011;69074;45.164;9.704;2023-06-10T03:17:04;8.1;;;4.9;;
79592;SDS011;69074;45.164;9.704;2023-06-10T03:19:29;8.1;;;4.9;;
79592;SDS011;69074;45.164;9.704;2023-06-10T03:22:06;8.3;;;5.7;;
79592;SDS011;69074;45.164;9.704;2023-06-10T03:24:19;8.3;;;5.7;;
79592;SDS011;69074;45.164;9.704;2023-06-10T03:26:44;8.3;;;5.7;;
79592;SDS011;69074;45.164;9.704;2023-06-10T03:29:09;8.3;;;5.7;;
79592;SDS011;69074;45.164;9.704;2023-06-10T03:31:34;8.3;;;5.7;;
79592;SDS011;69074;45.164;9.704;2023-06-10T03:33:59;8.3;;;5.7;;
79592;SDS011;69074;45.164;9.704;2023-06-10T03:36:24;7.0;;;5.4;;
79592;SDS011;69074;45.164;9.704;2023-06-10T03:38:49;7.0;;;5.4;;
79592;SDS011;69074;45.164;9.704;2023-06-10T03:41:14;7.0;;;5.4;;
79592;SDS011;69074;45.164;9.704;2023-06-10T03:43:40;7.0;;;5.4;;
79592;SDS011;69074;45.164;9.704;2023-06-10T03:46:04;7.0;;;5.4;;
79592;SDS011;69074;45.164;9.704;2023-06-10T03:48:29;7.0;;;5.4;;
79592;SDS011;69074;45.164;9.704;2023-06-10T03:50:54;7.1;;;4.8;;
79592;SDS011;69074;45.164;9.704;2023-06-10T03:53:19;7.1;;;4.8;;
79592;SDS011;69074;45.164;9.704;2023-06-10T03:55:44;7.1;;;4.8;;
79592;SDS011;69074;45.164;9.704;2023-06-10T03:58:09;7.1;;;4.8;;
79592;SDS011;69074;45.164;9.704;2023-06-10T04:00:34;7.1;;;4.8;;
79592;SDS011;69074;45.164;9.704;2023-06-10T04:02:59;7.1;;;4.8;;
79592;SDS011;69074;45.164;9.704;2023-06-10T04:05:24;7.1;;;4.8;;
79592;SDS011;69074;45.164;9.704;2023-06-10T04:07:49;6.1;;;4.2;;
79592;SDS011;69074;45.164;9.704;2023-06-10T04:10:14;6.1;;;4.2;;
79592;SDS011;69074;45.164;9.704;2023-06-10T04:12:39;6.1;;;4.2;;
79592;SDS011;69074;45.164;9.704;2023-06-10T04:15:05;6.1;;;4.2;;
79592;SDS011;69074;45.164;9.704;2023-06-10T04:17:29;6.1;;;4.2;;
79592;SDS011;69074;45.164;9.704;2023-06-10T04:19:54;6.1;;;4.2;;
79592;SDS011;69074;45.164;9.704;2023-06-10T04:22:19;6.4;;;4.2;;
79592;SDS011;69074;45.164;9.704;2023-06-10T04:24:44;6.4;;;4.2;;
79592;SDS011;69074;45.164;9.704;2023-06-10T04:27:09;6.4;;;4.2;;
79592;SDS011;69074;45.164;9.704;2023-06-10T04:29:34;6.4;;;4.2;;
79592;SDS011;69074;45.164;9.704;2023-06-10T04:31:59;6.4;;;4.2;;
79592;SDS011;69074;45.164;9.704;2023-06-10T04:34:24;6.4;;;4.2;;
79592;SDS011;69074;45.164;9.704;2023-06-10T04:36:49;8.3;;;4.9;;
79592;SDS011;69074;45.164;9.704;2023-06-10T04:39:14;8.3;;;4.9;;
79592;SDS011;69074;45.164;9.704;2023-06-10T04:41:39;8.3;;;4.9;;
79592;SDS011;69074;45.164;9.704;2023-06-10T04:44:04;8.3;;;4.9;;
79592;SDS011;69074;45.164;9.704;2023-06-10T04:46:29;8.3;;;4.9;;
79592;SDS011;69074;45.164;9.704;2023-06-10T04:48:54;8.3;;;4.9;;
79592;SDS011;69074;45.164;9.704;2023-06-10T04:51:19;9.9;;;5.4;;
79592;SDS011;69074;45.164;9.704;2023-06-10T04:53:44;9.9;;;5.4;;
79592;SDS011;69074;45.164;9.704;2023-06-10T04:56:09;9.9;;;5.4;;
79592;SDS011;69074;45.164;9.704;2023-06-10T04:58:34;9.9;;;5.4;;
79592;SDS011;69074;45.164;9.704;2023-06-10T05:00:59;9.9;;;5.4;;
79592;SDS011;69074;45.164;9.704;2023-06-10T05:03:24;9.9;;;5.4;;
79592;SDS011;69074;45.164;9.704;2023-06-10T05:05:49;7.1;;;5.0;;
79592;SDS011;69074;45.164;9.704;2023-06-10T05:08:14;7.1;;;5.0;;
79592;SDS011;69074;45.164;9.704;2023-06-10T05:10:39;7.1;;;5.0;;
79592;SDS011;69074;45.164;9.704;2023-06-10T05:13:05;7.1;;;5.0;;
79592;SDS011;69074;45.164;9.704;2023-06-10T05:15:29;7.1;;;5.0;;
79592;SDS011;69074;45.164;9.704;2023-06-10T05:17:55;7.1;;;5.0;;
79592;SDS011;69074;45.164;9.704;2023-06-10T05:20:20;7.1;;;5.0;;
79592;SDS011;69074;45.164;9.704;2023-06-10T05:22:44;7.3;;;5.5;;
79592;SDS011;69074;45.164;9.704;2023-06-10T05:25:09;7.3;;;5.5;;
79592;SDS011;69074;45.164;9.704;2023-06-10T05:27:34;7.3;;;5.5;;
79592;SDS011;69074;45.164;9.704;2023-06-10T05:29:59;7.3;;;5.5;;
79592;SDS011;69074;45.164;9.704;2023-06-10T05:32:24;7.3;;;5.5;;
79592;SDS011;69074;45.164;9.704;2023-06-10T05:34:49;7.3;;;5.5;;
79592;SDS011;69074;45.164;9.704;2023-06-10T05:37:15;7.0;;;5.1;;
79592;SDS011;69074;45.164;9.704;2023-06-10T05:39:39;7.0;;;5.1;;
79592;SDS011;69074;45.164;9.704;2023-06-10T05:42:05;7.0;;;5.1;;
79592;SDS011;69074;45.164;9.704;2023-06-10T05:44:30;7.0;;;5.1;;
79592;SDS011;69074;45.164;9.704;2023-06-10T05:46:55;7.0;;;5.1;;
79592;SDS011;69074;45.164;9.704;2023-06-10T05:49:20;7.0;;;5.1;;
79592;SDS011;69074;45.164;9.704;2023-06-10T05:51:45;6.3;;;5.4;;
79592;SDS011;69074;45.164;9.704;2023-06-10T05:54:10;6.3;;;5.4;;
79592;SDS011;69074;45.164;9.704;2023-06-10T05:56:35;6.3;;;5.4;;
79592;SDS011;69074;45.164;9.704;2023-06-10T05:59:00;6.3;;;5.4;;
79592;SDS011;69074;45.164;9.704;2023-06-10T06:01:25;6.3;;;5.4;;
79592;SDS011;69074;45.164;9.704;2023-06-10T06:03:50;6.3;;;5.4;;
79592;SDS011;69074;45.164;9.704;2023-06-10T06:06:15;9.6;;;5.7;;
79592;SDS011;69074;45.164;9.704;2023-06-10T06:08:40;9.6;;;5.7;;
79592;SDS011;69074;45.164;9.704;2023-06-10T06:11:05;9.6;;;5.7;;
79592;SDS011;69074;45.164;9.704;2023-06-10T06:13:30;9.6;;;5.7;;
79592;SDS011;69074;45.164;9.704;2023-06-10T06:15:55;9.6;;;5.7;;
79592;SDS011;69074;45.164;9.704;2023-06-10T06:18:20;9.6;;;5.7;;
79592;SDS011;69074;45.164;9.704;2023-06-10T06:20:45;11.4;;;5.4;;
79592;SDS011;69074;45.164;9.704;2023-06-10T06:23:10;11.4;;;5.4;;
79592;SDS011;69074;45.164;9.704;2023-06-10T06:25:35;11.4;;;5.4;;
79592;SDS011;69074;45.164;9.704;2023-06-10T06:28:00;11.4;;;5.4;;
79592;SDS011;69074;45.164;9.704;2023-06-10T06:30:25;11.4;;;5.4;;
79592;SDS011;69074;45.164;9.704;2023-06-10T06:32:50;11.4;;;5.4;;
79592;SDS011;69074;45.164;9.704;2023-06-10T06:35:15;11.4;;;5.4;;
79592;SDS011;69074;45.164;9.704;2023-06-10T06:37:40;11.0;;;7.2;;
79592;SDS011;69074;45.164;9.704;2023-06-10T06:40:05;11.0;;;7.2;;
79592;SDS011;69074;45.164;9.704;2023-06-10T06:42:30;11.0;;;7.2;;
79592;SDS011;69074;45.164;9.704;2023-06-10T06:44:55;11.0;;;7.2;;
79592;SDS011;69074;45.164;9.704;2023-06-10T06:47:20;11.0;;;7.2;;
79592;SDS011;69074;45.164;9.704;2023-06-10T06:49:45;11.0;;;7.2;;
79592;SDS011;69074;45.164;9.704;2023-06-10T06:52:10;15.3;;;11.1;;
79592;SDS011;69074;45.164;9.704;2023-06-10T06:54:35;15.3;;;11.1;;
79592;SDS011;69074;45.164;9.704;2023-06-10T06:57:00;15.3;;;11.1;;
79592;SDS011;69074;45.164;9.704;2023-06-10T06:59:25;15.3;;;11.1;;
79592;SDS011;69074;45.164;9.704;2023-06-10T07:01:50;15.3;;;11.1;;
79592;SDS011;69074;45.164;9.704;2023-06-10T07:04:15;15.3;;;11.1;;
79592;SDS011;69074;45.164;9.704;2023-06-10T07:06:40;10.2;;;7.9;;
79592;SDS011;69074;45.164;9.704;2023-06-10T07:09:05;10.2;;;7.9;;
79592;SDS011;69074;45.164;9.704;2023-06-10T07:11:30;10.2;;;7.9;;
79592;SDS011;69074;45.164;9.704;2023-06-10T07:13:55;10.2;;;7.9;;
79592;SDS011;69074;45.164;9.704;2023-06-10T07:16:20;10.2;;;7.9;;
79592;SDS011;69074;45.164;9.704;2023-06-10T07:18:45;10.2;;;7.9;;
79592;SDS011;69074;45.164;9.704;2023-06-10T07:21:10;12.5;;;7.0;;
79592;SDS011;69074;45.164;9.704;2023-06-10T07:23:35;12.5;;;7.0;;
79592;SDS011;69074;45.164;9.704;2023-06-10T07:26:00;12.5;;;7.0;;
79592;SDS011;69074;45.164;9.704;2023-06-10T07:28:25;12.5;;;7.0;;
79592;SDS011;69074;45.164;9.704;2023-06-10T07:30:50;12.5;;;7.0;;
79592;SDS011;69074;45.164;9.704;2023-06-10T07:33:15;12.5;;;7.0;;
79592;SDS011;69074;45.164;9.704;2023-06-10T07:35:40;12.5;;;7.0;;
79592;SDS011;69074;45.164;9.704;2023-06-10T07:38:05;6.6;;;4.9;;
79592;SDS011;69074;45.164;9.704;2023-06-10T07:40:30;6.6;;;4.9;;
79592;SDS011;69074;45.164;9.704;2023-06-10T07:42:55;6.6;;;4.9;;
79592;SDS011;69074;45.164;9.704;2023-06-10T07:45:20;6.6;;;4.9;;
79592;SDS011;69074;45.164;9.704;2023-06-10T07:47:45;6.6;;;4.9;;
79592;SDS011;69074;45.164;9.704;2023-06-10T07:50:10;6.6;;;4.9;;
79592;SDS011;69074;45.164;9.704;2023-06-10T07:52:35;4.8;;;3.4;;
79592;SDS011;69074;45.164;9.704;2023-06-10T07:55:00;4.8;;;3.4;;
79592;SDS011;69074;45.164;9.704;2023-06-10T07:57:25;4.8;;;3.4;;
79592;SDS011;69074;45.164;9.704;2023-06-10T07:59:50;4.8;;;3.4;;
79592;SDS011;69074;45.164;9.704;2023-06-10T08:02:15;4.8;;;3.4;;
79592;SDS011;69074;45.164;9.704;2023-06-10T08:04:40;4.8;;;3.4;;
79592;SDS011;69074;45.164;9.704;2023-06-10T08:07:05;3.9;;;3.2;;
79592;SDS011;69074;45.164;9.704;2023-06-10T08:09:30;3.9;;;3.2;;
79592;SDS011;69074;45.164;9.704;2023-06-10T08:11:55;3.9;;;3.2;;
79592;SDS011;69074;45.164;9.704;2023-06-10T08:14:20;3.9;;;3.2;;
79592;SDS011;69074;45.164;9.704;2023-06-10T08:16:45;3.9;;;3.2;;
79592;SDS011;69074;45.164;9.704;2023-06-10T08:19:10;3.9;;;3.2;;
79592;SDS011;69074;45.164;9.704;2023-06-10T08:21:35;5.7;;;3.5;;
79592;SDS011;69074;45.164;9.704;2023-06-10T08:24:00;5.7;;;3.5;;
79592;SDS011;69074;45.164;9.704;2023-06-10T08:26:25;5.7;;;3.5;;
79592;SDS011;69074;45.164;9.704;2023-06-10T08:28:50;5.7;;;3.5;;
79592;SDS011;69074;45.164;9.704;2023-06-10T08:31:15;5.7;;;3.5;;
79592;SDS011;69074;45.164;9.704;2023-06-10T08:33:41;5.7;;;3.5;;
79592;SDS011;69074;45.164;9.704;2023-06-10T08:36:05;4.9;;;3.9;;
79592;SDS011;69074;45.164;9.704;2023-06-10T08:38:30;4.9;;;3.9;;
79592;SDS011;69074;45.164;9.704;2023-06-10T08:40:56;4.9;;;3.9;;
79592;SDS011;69074;45.164;9.704;2023-06-10T08:43:21;4.9;;;3.9;;
79592;SDS011;69074;45.164;9.704;2023-06-10T08:45:45;4.9;;;3.9;;
79592;SDS011;69074;45.164;9.704;2023-06-10T08:48:10;4.9;;;3.9;;
79592;SDS011;69074;45.164;9.704;2023-06-10T08:50:36;4.9;;;3.9;;
79592;SDS011;69074;45.164;9.704;2023-06-10T08:53:00;6.5;;;3.0;;
79592;SDS011;69074;45.164;9.704;2023-06-10T08:55:27;6.5;;;3.0;;
79592;SDS011;69074;45.164;9.704;2023-06-10T08:57:51;6.5;;;3.0;;
79592;SDS011;69074;45.164;9.704;2023-06-10T09:00:16;6.5;;;3.0;;
79592;SDS011;69074;45.164;9.704;2023-06-10T09:02:41;6.5;;;3.0;;
79592;SDS011;69074;45.164;9.704;2023-06-10T09:05:06;6.5;;;3.0;;
79592;SDS011;69074;45.164;9.704;2023-06-10T09:07:31;4.5;;;2.9;;
79592;SDS011;69074;45.164;9.704;2023-06-10T09:09:55;4.5;;;2.9;;
79592;SDS011;69074;45.164;9.704;2023-06-10T09:12:21;4.5;;;2.9;;
79592;SDS011;69074;45.164;9.704;2023-06-10T09:14:46;4.5;;;2.9;;
79592;SDS011;69074;45.164;9.704;2023-06-10T09:17:11;4.5;;;2.9;;
79592;SDS011;69074;45.164;9.704;2023-06-10T09:19:36;4.5;;;2.9;;
79592;SDS011;69074;45.164;9.704;2023-06-10T09:22:01;9.1;;;3.3;;
79592;SDS011;69074;45.164;9.704;2023-06-10T09:24:26;9.1;;;3.3;;
79592;SDS011;69074;45.164;9.704;2023-06-10T09:26:52;9.1;;;3.3;;
79592;SDS011;69074;45.164;9.704;2023-06-10T09:29:16;9.1;;;3.3;;
79592;SDS011;69074;45.164;9.704;2023-06-10T09:31:41;9.1;;;3.3;;
79592;SDS011;69074;45.164;9.704;2023-06-10T09:34:07;9.1;;;3.3;;
79592;SDS011;69074;45.164;9.704;2023-06-10T09:36:31;4.1;;;2.5;;
79592;SDS011;69074;45.164;9.704;2023-06-10T09:38:56;4.1;;;2.5;;
79592;SDS011;69074;45.164;9.704;2023-06-10T09:41:21;4.1;;;2.5;;
79592;SDS011;69074;45.164;9.704;2023-06-10T09:43:46;4.1;;;2.5;;
79592;SDS011;69074;45.164;9.704;2023-06-10T09:46:14;4.1;;;2.5;;
79592;SDS011;69074;45.164;9.704;2023-06-10T09:48:38;4.1;;;2.5;;
79592;SDS011;69074;45.164;9.704;2023-06-10T09:51:01;5.7;;;2.6;;
79592;SDS011;69074;45.164;9.704;2023-06-10T09:53:26;5.7;;;2.6;;
79592;SDS011;69074;45.164;9.704;2023-06-10T09:55:51;5.7;;;2.6;;
79592;SDS011;69074;45.164;9.704;2023-06-10T09:58:16;5.7;;;2.6;;
79592;SDS011;69074;45.164;9.704;2023-06-10T10:00:41;5.7;;;2.6;;
79592;SDS011;69074;45.164;9.704;2023-06-10T10:03:06;5.7;;;2.6;;
79592;SDS011;69074;45.164;9.704;2023-06-10T10:05:31;5.7;;;2.6;;
79592;SDS011;69074;45.164;9.704;2023-06-10T10:07:56;6.2;;;2.4;;
79592;SDS011;69074;45.164;9.704;2023-06-10T10:10:21;6.2;;;2.4;;
79592;SDS011;69074;45.164;9.704;2023-06-10T10:12:47;6.2;;;2.4;;
79592;SDS011;69074;45.164;9.704;2023-06-10T10:15:11;6.2;;;2.4;;
79592;SDS011;69074;45.164;9.704;2023-06-10T10:17:37;6.2;;;2.4;;
79592;SDS011;69074;45.164;9.704;2023-06-10T10:20:02;6.2;;;2.4;;
79592;SDS011;69074;45.164;9.704;2023-06-10T10:22:26;4.9;;;2.2;;
79592;SDS011;69074;45.164;9.704;2023-06-10T10:24:53;4.9;;;2.2;;
79592;SDS011;69074;45.164;9.704;2023-06-10T10:27:17;4.9;;;2.2;;
79592;SDS011;69074;45.164;9.704;2023-06-10T10:29:41;4.9;;;2.2;;
79592;SDS011;69074;45.164;9.704;2023-06-10T10:32:06;4.9;;;2.2;;
79592;SDS011;69074;45.164;9.704;2023-06-10T10:34:33;4.9;;;2.2;;
79592;SDS011;69074;45.164;9.704;2023-06-10T10:36:56;30.9;;;19.1;;
79592;SDS011;69074;45.164;9.704;2023-06-10T10:39:21;30.9;;;19.1;;
79592;SDS011;69074;45.164;9.704;2023-06-10T10:41:46;30.9;;;19.1;;
79592;SDS011;69074;45.164;9.704;2023-06-10T10:44:11;30.9;;;19.1;;
79592;SDS011;69074;45.164;9.704;2023-06-10T10:46:43;30.9;;;19.1;;
79592;SDS011;69074;45.164;9.704;2023-06-10T10:49:01;30.9;;;19.1;;
79592;SDS011;69074;45.164;9.704;2023-06-10T10:51:26;68.9;;;33.3;;
79592;SDS011;69074;45.164;9.704;2023-06-10T10:54:11;68.9;;;33.3;;
79592;SDS011;69074;45.164;9.704;2023-06-10T10:56:16;68.9;;;33.3;;
79592;SDS011;69074;45.164;9.704;2023-06-10T10:58:41;68.9;;;33.3;;
79592;SDS011;69074;45.164;9.704;2023-06-10T11:01:10;68.9;;;33.3;;
79592;SDS011;69074;45.164;9.704;2023-06-10T11:03:31;68.9;;;33.3;;
79592;SDS011;69074;45.164;9.704;2023-06-10T11:05:57;39.2;;;25.9;;
79592;SDS011;69074;45.164;9.704;2023-06-10T11:08:45;39.2;;;25.9;;
79592;SDS011;69074;45.164;9.704;2023-06-10T11:10:50;39.2;;;25.9;;
79592;SDS011;69074;45.164;9.704;2023-06-10T11:13:12;39.2;;;25.9;;
79592;SDS011;69074;45.164;9.704;2023-06-10T11:15:38;39.2;;;25.9;;
79592;SDS011;69074;45.164;9.704;2023-06-10T11:18:34;39.2;;;25.9;;
79592;SDS011;69074;45.164;9.704;2023-06-10T11:20:41;39.2;;;25.9;;
79592;SDS011;69074;45.164;9.704;2023-06-10T11:22:58;30.3;;;19.5;;
79592;SDS011;69074;45.164;9.704;2023-06-10T11:25:16;30.3;;;19.5;;
79592;SDS011;69074;45.164;9.704;2023-06-10T11:27:41;30.3;;;19.5;;
79592;SDS011;69074;45.164;9.704;2023-06-10T11:30:22;30.3;;;19.5;;
79592;SDS011;69074;45.164;9.704;2023-06-10T11:32:32;30.3;;;19.5;;
79592;SDS011;69074;45.164;9.704;2023-06-10T11:34:56;30.3;;;19.5;;
79592;SDS011;69074;45.164;9.704;2023-06-10T11:37:21;21.7;;;15.9;;
79592;SDS011;69074;45.164;9.704;2023-06-10T11:39:46;21.7;;;15.9;;
79592;SDS011;69074;45.164;9.704;2023-06-10T11:42:11;21.7;;;15.9;;
79592;SDS011;69074;45.164;9.704;2023-06-10T11:44:36;21.7;;;15.9;;
79592;SDS011;69074;45.164;9.704;2023-06-10T11:47:01;21.7;;;15.9;;
79592;SDS011;69074;45.164;9.704;2023-06-10T11:49:26;21.7;;;15.9;;
79592;SDS011;69074;45.164;9.704;2023-06-10T11:51:51;22.5;;;18.0;;
79592;SDS011;69074;45.164;9.704;2023-06-10T11:54:16;22.5;;;18.0;;
79592;SDS011;69074;45.164;9.704;2023-06-10T11:56:41;22.5;;;18.0;;
79592;SDS011;69074;45.164;9.704;2023-06-10T11:59:06;22.5;;;18.0;;
79592;SDS011;69074;45.164;9.704;2023-06-10T12:01:32;22.5;;;18.0;;
79592;SDS011;69074;45.164;9.704;2023-06-10T12:03:57;22.5;;;18.0;;
79592;SDS011;69074;45.164;9.704;2023-06-10T12:06:21;14.3;;;12.7;;
79592;SDS011;69074;45.164;9.704;2023-06-10T12:08:46;14.3;;;12.7;;
79592;SDS011;69074;45.164;9.704;2023-06-10T12:11:11;14.3;;;12.7;;
79592;SDS011;69074;45.164;9.704;2023-06-10T12:13:36;14.3;;;12.7;;
79592;SDS011;69074;45.164;9.704;2023-06-10T12:16:09;14.3;;;12.7;;
79592;SDS011;69074;45.164;9.704;2023-06-10T12:18:26;14.3;;;12.7;;
79592;SDS011;69074;45.164;9.704;2023-06-10T12:20:51;30.3;;;26.6;;
79592;SDS011;69074;45.164;9.704;2023-06-10T12:23:17;30.3;;;26.6;;
79592;SDS011;69074;45.164;9.704;2023-06-10T12:25:49;30.3;;;26.6;;
79592;SDS011;69074;45.164;9.704;2023-06-10T12:28:09;30.3;;;26.6;;
79592;SDS011;69074;45.164;9.704;2023-06-10T12:30:31;30.3;;;26.6;;
79592;SDS011;69074;45.164;9.704;2023-06-10T12:32:56;30.3;;;26.6;;
79592;SDS011;69074;45.164;9.704;2023-06-10T12:35:22;30.3;;;26.6;;
79592;SDS011;69074;45.164;9.704;2023-06-10T12:37:54;19.0;;;15.4;;
79592;SDS011;69074;45.164;9.704;2023-06-10T12:40:12;19.0;;;15.4;;
79592;SDS011;69074;45.164;9.704;2023-06-10T12:42:37;19.0;;;15.4;;
79592;SDS011;69074;45.164;9.704;2023-06-10T12:45:02;19.0;;;15.4;;
79592;SDS011;69074;45.164;9.704;2023-06-10T12:47:30;19.0;;;15.4;;
79592;SDS011;69074;45.164;9.704;2023-06-10T12:49:51;19.0;;;15.4;;
79592;SDS011;69074;45.164;9.704;2023-06-10T12:52:16;15.9;;;13.2;;
79592;SDS011;69074;45.164;9.704;2023-06-10T12:54:41;15.9;;;13.2;;
79592;SDS011;69074;45.164;9.704;2023-06-10T12:57:07;15.9;;;13.2;;
79592;SDS011;69074;45.164;9.704;2023-06-10T12:59:31;15.9;;;13.2;;
79592;SDS011;69074;45.164;9.704;2023-06-10T13:01:56;15.9;;;13.2;;
79592;SDS011;69074;45.164;9.704;2023-06-10T13:04:21;15.9;;;13.2;;
79592;SDS011;69074;45.164;9.704;2023-06-10T13:06:46;17.7;;;15.7;;
79592;SDS011;69074;45.164;9.704;2023-06-10T13:09:11;17.7;;;15.7;;
79592;SDS011;69074;45.164;9.704;2023-06-10T13:11:36;17.7;;;15.7;;
79592;SDS011;69074;45.164;9.704;2023-06-10T13:14:02;17.7;;;15.7;;
79592;SDS011;69074;45.164;9.704;2023-06-10T13:16:26;17.7;;;15.7;;
79592;SDS011;69074;45.164;9.704;2023-06-10T13:18:52;17.7;;;15.7;;
79592;SDS011;69074;45.164;9.704;2023-06-10T13:21:16;26.9;;;22.2;;
79592;SDS011;69074;45.164;9.704;2023-06-10T13:23:43;26.9;;;22.2;;
79592;SDS011;69074;45.164;9.704;2023-06-10T13:26:06;26.9;;;22.2;;
79592;SDS011;69074;45.164;9.704;2023-06-10T13:28:31;26.9;;;22.2;;
79592;SDS011;69074;45.164;9.704;2023-06-10T13:30:57;26.9;;;22.2;;
79592;SDS011;69074;45.164;9.704;2023-06-10T13:33:21;26.9;;;22.2;;
79592;SDS011;69074;45.164;9.704;2023-06-10T13:35:46;29.8;;;16.8;;
79592;SDS011;69074;45.164;9.704;2023-06-10T13:38:11;29.8;;;16.8;;
79592;SDS011;69074;45.164;9.704;2023-06-10T13:40:36;29.8;;;16.8;;
79592;SDS011;69074;45.164;9.704;2023-06-10T13:43:01;29.8;;;16.8;;
79592;SDS011;69074;45.164;9.704;2023-06-10T13:45:26;29.8;;;16.8;;
79592;SDS011;69074;45.164;9.704;2023-06-10T13:47:51;29.8;;;16.8;;
79592;SDS011;69074;45.164;9.704;2023-06-10T13:50:16;29.8;;;16.8;;
79592;SDS011;69074;45.164;9.704;2023-06-10T13:52:41;20.9;;;17.9;;
79592;SDS011;69074;45.164;9.704;2023-06-10T13:55:07;20.9;;;17.9;;
79592;SDS011;69074;45.164;9.704;2023-06-10T13:57:31;20.9;;;17.9;;
79592;SDS011;69074;45.164;9.704;2023-06-10T13:59:56;20.9;;;17.9;;
79592;SDS011;69074;45.164;9.704;2023-06-10T14:02:21;20.9;;;17.9;;
79592;SDS011;69074;45.164;9.704;2023-06-10T14:04:46;20.9;;;17.9;;
79592;SDS011;69074;45.164;9.704;2023-06-10T14:07:11;20.6;;;18.4;;
79592;SDS011;69074;45.164;9.704;2023-06-10T14:09:36;20.6;;;18.4;;
79592;SDS011;69074;45.164;9.704;2023-06-10T14:12:01;20.6;;;18.4;;
79592;SDS011;69074;45.164;9.704;2023-06-10T14:14:26;20.6;;;18.4;;
79592;SDS011;69074;45.164;9.704;2023-06-10T14:16:51;20.6;;;18.4;;
79592;SDS011;69074;45.164;9.704;2023-06-10T14:19:16;20.6;;;18.4;;
79592;SDS011;69074;45.164;9.704;2023-06-10T14:21:42;23.1;;;16.2;;
79592;SDS011;69074;45.164;9.704;2023-06-10T14:24:06;23.1;;;16.2;;
79592;SDS011;69074;45.164;9.704;2023-06-10T14:26:31;23.1;;;16.2;;
79592;SDS011;69074;45.164;9.704;2023-06-10T14:28:56;23.1;;;16.2;;
79592;SDS011;69074;45.164;9.704;2023-06-10T14:31:21;23.1;;;16.2;;
79592;SDS011;69074;45.164;9.704;2023-06-10T14:33:46;23.1;;;16.2;;
79592;SDS011;69074;45.164;9.704;2023-06-10T14:36:11;64.7;;;36.6;;
79592;SDS011;69074;45.164;9.704;2023-06-10T14:38:37;64.7;;;36.6;;
79592;SDS011;69074;45.164;9.704;2023-06-10T14:41:01;64.7;;;36.6;;
79592;SDS011;69074;45.164;9.704;2023-06-10T14:43:26;64.7;;;36.6;;
79592;SDS011;69074;45.164;9.704;2023-06-10T14:45:51;64.7;;;36.6;;
79592;SDS011;69074;45.164;9.704;2023-06-10T14:48:16;64.7;;;36.6;;
79592;SDS011;69074;45.164;9.704;2023-06-10T14:50:41;64.7;;;36.6;;